Time;durP1;ratioP1;P1;durP2;ratioP2;P2;SDS_P1;SDS_P2;PMS_P1;PMS_P2;Temp;Humidity;BMP_temperature;BMP_pressure;BME280_temperature;BME280_humidity;BME280_pressure;Samples;Min_cycle;Max_cycle;Signal;HPM_P1;HPM_P2
2022/03/22 00:02:03;;;;;;;25.35;11.43;;;;;;;22.96;10.28;100213.84;5087357;28;20028;-77
2022/03/22 00:04:30;;;;;;;27.75;11.82;;;;;;;22.53;10.52;100211.44;5084536;28;20036;-77
2022/03/22 00:06:56;;;;;;;31.65;12.95;;;;;;;21.96;10.93;100207.56;5065850;28;20047;-77
2022/03/22 00:09:22;;;;;;;31.50;14.30;;;;;;;21.56;11.34;100204.28;5083963;28;20042;-76
2022/03/22 00:11:50;;;;;;;31.42;11.73;;;;;;;21.62;11.18;100211.19;5088915;28;20032;-77
2022/03/22 00:14:17;;;;;;;29.45;11.82;;;;;;;21.93;10.99;100213.91;5088774;28;20024;-77
2022/03/22 00:16:43;;;;;;;31.92;11.85;;;;;;;22.18;10.77;100208.78;5087733;28;20048;-77
2022/03/22 00:19:09;;;;;;;31.85;13.88;;;;;;;22.44;10.78;100200.50;5084957;28;20507;-77
2022/03/22 00:21:35;;;;;;;36.10;14.63;;;;;;;22.34;10.98;100209.50;5083783;28;20036;-77
2022/03/22 00:24:03;;;;;;;35.40;14.30;;;;;;;22.27;10.76;100212.16;5088974;28;20032;-76
2022/03/22 00:26:29;;;;;;;32.30;14.15;;;;;;;22.45;10.70;100204.91;5082896;28;20086;-77
2022/03/22 00:28:55;;;;;;;34.78;14.73;;;;;;;21.92;11.14;100211.47;5082830;28;20028;-76
2022/03/22 00:31:21;;;;;;;32.83;12.20;;;;;;;20.65;12.59;100212.03;5087413;28;20036;-76
2022/03/22 00:33:47;;;;;;;28.98;10.68;;;;;;;20.48;12.37;100219.94;5082224;28;20110;-76
2022/03/22 00:36:14;;;;;;;30.35;10.70;;;;;;;20.75;12.08;100219.06;5091439;28;20025;-77
2022/03/22 00:38:40;;;;;;;28.00;12.18;;;;;;;20.93;11.85;100223.13;5085280;28;20036;-77
2022/03/22 00:41:06;;;;;;;30.98;12.15;;;;;;;21.07;11.36;100217.09;5080636;28;20032;-77
2022/03/22 00:43:35;;;;;;;28.75;11.27;;;;;;;21.61;11.09;100214.38;5081979;28;20032;-77
2022/03/22 00:46:02;;;;;;;32.63;12.52;;;;;;;22.06;10.61;100208.13;5089356;28;20032;-77
2022/03/22 00:48:29;;;;;;;32.03;12.82;;;;;;;21.91;11.19;100213.44;5080970;28;20048;-76
2022/03/22 00:50:56;;;;;;;29.63;12.30;;;;;;;21.32;11.49;100208.16;5084369;28;20089;-76
2022/03/22 00:53:22;;;;;;;27.83;12.18;;;;;;;20.82;11.78;100210.88;5088249;28;20038;-77
2022/03/22 00:55:49;;;;;;;27.40;11.98;;;;;;;21.11;11.52;100212.41;5081828;28;20114;-76
2022/03/22 00:58:15;;;;;;;30.33;11.68;;;;;;;21.44;11.14;100201.63;5091528;28;20039;-77
2022/03/22 01:00:42;;;;;;;31.15;12.93;;;;;;;21.71;10.94;100206.19;5085780;28;20099;-77
2022/03/22 01:03:09;;;;;;;32.80;13.20;;;;;;;21.94;10.96;100200.72;5086830;28;20085;-77
2022/03/22 01:05:37;;;;;;;29.35;11.52;;;;;;;21.98;10.61;100198.81;5088443;28;20402;-77
2022/03/22 01:08:07;;;;;;;30.55;12.38;;;;;;;22.19;10.46;100202.03;5083487;28;20078;-76
2022/03/22 01:10:36;;;;;;;28.70;10.50;;;;;;;21.75;10.87;100200.69;5087596;28;21814;-76
2022/03/22 01:13:02;;;;;;;33.75;11.70;;;;;;;21.58;11.03;100195.53;5085979;28;20060;-76
2022/03/22 01:15:34;;;;;;;29.55;11.05;;;;;;;21.52;11.06;100203.38;5082632;28;20032;-77
2022/03/22 01:18:06;;;;;;;33.17;12.07;;;;;;;21.58;10.67;100199.13;5088919;28;20054;-77
2022/03/22 01:20:37;;;;;;;35.58;13.38;;;;;;;21.85;10.63;100200.13;5082692;28;20528;-74
2022/03/22 01:23:07;;;;;;;36.08;12.73;;;;;;;22.17;10.60;100193.19;5080922;28;20105;-73
2022/03/22 01:25:34;;;;;;;33.85;13.52;;;;;;;22.16;10.93;100190.75;5085016;28;20043;-73
2022/03/22 01:28:05;;;;;;;32.00;12.48;;;;;;;21.21;11.41;100195.88;5082110;28;20508;-76
2022/03/22 01:30:32;;;;;;;34.78;12.48;;;;;;;20.75;11.80;100199.50;5082453;28;20035;-76
2022/03/22 01:32:58;;;;;;;32.42;13.23;;;;;;;21.14;11.56;100195.72;5086863;28;20032;-76
2022/03/22 01:35:25;;;;;;;34.22;13.50;;;;;;;21.15;11.28;100190.94;5080330;28;20509;-77
2022/03/22 01:37:53;;;;;;;33.85;13.85;;;;;;;21.28;11.53;100192.47;5085592;28;20531;-77
2022/03/22 01:40:21;;;;;;;31.95;12.63;;;;;;;21.24;11.34;100200.75;5084516;28;20371;-76
2022/03/22 01:42:47;;;;;;;28.80;11.88;;;;;;;21.10;11.49;100196.81;5082953;28;20039;-77
2022/03/22 01:45:15;;;;;;;37.72;13.55;;;;;;;21.14;11.55;100197.72;5087256;28;20119;-77
2022/03/22 01:47:43;;;;;;;38.22;15.20;;;;;;;21.08;12.03;100191.59;5085132;28;20047;-76
2022/03/22 01:50:14;;;;;;;39.40;15.02;;;;;;;21.15;12.02;100185.38;5079934;28;20032;-75
2022/03/22 01:52:44;;;;;;;40.90;14.02;;;;;;;20.89;11.77;100188.69;5087028;28;20025;-76
2022/03/22 01:55:12;;;;;;;39.88;13.32;;;;;;;21.28;11.48;100192.47;5080509;28;20044;-76
2022/03/22 01:57:38;;;;;;;35.95;13.93;;;;;;;21.63;11.39;100184.06;5075261;28;20032;-76
2022/03/22 02:00:09;;;;;;;36.25;13.65;;;;;;;21.49;11.15;100176.19;5087149;28;20032;-76
2022/03/22 02:08:08;;;;;;;42.15;14.45;;;;;;;21.82;11.05;100178.47;5085880;28;20046;-76
2022/03/22 02:10:35;;;;;;;30.38;12.23;;;;;;;22.05;10.81;100179.38;5080242;28;20036;-76
2022/03/22 02:13:02;;;;;;;37.22;13.63;;;;;;;22.14;10.89;100179.13;5085373;28;20515;-76
2022/03/22 02:15:28;;;;;;;32.75;13.25;;;;;;;21.82;11.17;100175.69;5083915;28;20036;-76
2022/03/22 02:17:54;;;;;;;38.47;14.48;;;;;;;21.92;11.08;100172.31;5080628;28;20162;-76
2022/03/22 02:20:20;;;;;;;39.47;13.98;;;;;;;21.85;11.07;100172.97;5066341;28;20166;-76
2022/03/22 02:23:13;;;;;;;31.40;13.40;;;;;;;21.25;11.71;100171.66;5070504;28;20047;-76
2022/03/22 02:25:39;;;;;;;33.35;13.38;;;;;;;21.18;11.70;100177.09;5079095;28;20059;-76
2022/03/22 02:28:05;;;;;;;31.58;12.52;;;;;;;21.50;11.08;100179.75;5070341;28;20505;-76
2022/03/22 02:30:32;;;;;;;32.38;12.20;;;;;;;21.30;11.64;100176.16;5079645;28;20059;-76
2022/03/22 02:33:01;;;;;;;34.45;12.73;;;;;;;21.00;11.84;100181.41;5088257;28;20024;-76
2022/03/22 02:35:28;;;;;;;29.92;12.43;;;;;;;21.01;11.92;100188.59;5081481;28;20036;-76
2022/03/22 02:37:56;;;;;;;31.63;12.48;;;;;;;21.19;11.85;100181.47;5084891;28;20111;-76
2022/03/22 02:40:25;;;;;;;31.00;13.63;;;;;;;21.22;11.74;100175.16;5081614;28;20040;-76
2022/03/22 02:42:54;;;;;;;34.00;13.05;;;;;;;21.23;11.74;100174.00;5064272;28;20401;-76
2022/03/22 02:45:21;;;;;;;30.67;11.90;;;;;;;21.33;11.42;100179.00;5079908;28;20036;-76
2022/03/22 02:47:47;;;;;;;31.83;12.10;;;;;;;21.59;11.48;100178.38;5075152;28;20517;-76
2022/03/22 02:50:13;;;;;;;26.83;11.73;;;;;;;21.67;11.48;100180.16;5068215;28;20051;-76
2022/03/22 02:52:40;;;;;;;28.88;13.25;;;;;;;21.83;11.55;100182.88;5068348;28;20051;-75
2022/03/22 02:55:09;;;;;;;32.53;12.75;;;;;;;21.76;11.39;100177.94;5071620;28;20039;-75
2022/03/22 02:57:36;;;;;;;33.70;11.95;;;;;;;21.31;11.84;100184.16;5070351;28;21043;-76
2022/03/22 03:00:06;;;;;;;29.88;12.88;;;;;;;21.12;11.93;100180.53;5078743;28;20811;-75
2022/03/22 03:02:32;;;;;;;31.42;11.68;;;;;;;21.08;12.02;100188.81;5084021;28;20020;-75
2022/03/22 03:04:58;;;;;;;32.13;11.57;;;;;;;21.17;11.89;100188.59;5081144;28;20044;-76
2022/03/22 03:07:24;;;;;;;27.70;11.57;;;;;;;21.17;12.19;100188.59;5083496;28;20081;-75
2022/03/22 03:09:50;;;;;;;31.25;11.57;;;;;;;20.98;12.21;100194.91;5079582;28;20439;-75
2022/03/22 03:12:16;;;;;;;40.65;13.05;;;;;;;20.91;12.31;100200.31;5076756;28;20111;-75
2022/03/22 03:14:43;;;;;;;31.67;9.98;;;;;;;20.99;12.30;100198.50;5079566;28;20544;-75
2022/03/22 03:17:11;;;;;;;28.92;10.75;;;;;;;21.02;12.04;100203.38;5085199;28;20024;-76
2022/03/22 03:19:38;;;;;;;24.33;10.30;;;;;;;21.24;11.96;100189.59;5079188;28;20035;-75
2022/03/22 03:22:05;;;;;;;32.03;10.38;;;;;;;21.39;11.70;100195.50;5085389;28;20481;-75
2022/03/22 03:24:32;;;;;;;31.77;9.98;;;;;;;21.54;11.54;100186.25;5083530;28;20020;-75
2022/03/22 03:26:58;;;;;;;24.52;8.82;;;;;;;21.65;11.47;100192.88;5065030;28;20408;-75
2022/03/22 03:29:25;;;;;;;28.02;9.52;;;;;;;21.57;11.48;100194.72;5084052;28;20032;-75
2022/03/22 03:31:51;;;;;;;24.42;9.02;;;;;;;21.71;11.69;100194.19;5078673;28;20119;-76
2022/03/22 03:34:18;;;;;;;29.55;11.70;;;;;;;21.09;12.11;100193.22;5079054;28;20024;-76
2022/03/22 03:36:45;;;;;;;32.38;10.27;;;;;;;20.88;12.14;100203.03;5082726;28;20028;-76
2022/03/22 03:39:11;;;;;;;28.23;9.50;;;;;;;20.71;12.33;100204.22;5079083;28;20538;-75
2022/03/22 03:41:54;;;;;;;23.85;9.13;;;;;;;21.16;11.96;100196.19;5080745;28;20055;-75
2022/03/22 03:47:24;;;;;;;26.95;10.80;;;;;;;21.84;11.46;100195.72;5080305;28;20512;-75
2022/03/22 03:49:57;;;;;;;27.70;9.68;;;;;;;21.73;11.35;100195.47;5079260;28;20079;-76
2022/03/22 03:52:28;;;;;;;25.98;9.73;;;;;;;21.63;11.31;100201.66;5076767;28;20132;-76
2022/03/22 03:54:55;;;;;;;20.02;9.00;;;;;;;21.78;11.51;100206.34;5079187;28;20040;-76
2022/03/22 03:57:23;;;;;;;21.60;8.52;;;;;;;21.32;11.93;100210.13;5084039;28;20114;-76
2022/03/22 03:59:50;;;;;;;26.13;9.00;;;;;;;21.41;11.70;100207.94;5077760;28;20032;-76
2022/03/22 04:02:17;;;;;;;23.65;9.90;;;;;;;21.15;11.92;100211.31;5086356;28;20028;-76
2022/03/22 04:04:43;;;;;;;23.50;9.90;;;;;;;21.05;12.15;100209.06;5080893;28;20039;-76
2022/03/22 04:07:12;;;;;;;25.73;9.18;;;;;;;20.90;12.21;100211.84;5080549;28;20043;-75
2022/03/22 04:09:39;;;;;;;16.40;6.97;;;;;;;20.74;12.34;100211.06;5079137;28;20039;-75
2022/03/22 04:12:06;;;;;;;18.88;7.97;;;;;;;20.83;12.23;100218.09;5082202;28;20484;-75
2022/03/22 04:14:32;;;;;;;21.70;10.38;;;;;;;20.83;12.01;100212.50;5075767;28;20077;-75
2022/03/22 04:16:59;;;;;;;30.45;12.50;;;;;;;21.02;12.07;100220.97;5079446;28;20085;-75
2022/03/22 04:19:26;;;;;;;26.70;10.50;;;;;;;20.64;12.65;100218.81;5077998;28;20028;-75
2022/03/22 04:21:53;;;;;;;29.42;10.15;;;;;;;20.33;12.64;100213.16;5078528;28;20040;-76
2022/03/22 04:24:19;;;;;;;28.13;9.77;;;;;;;20.46;12.42;100219.50;5085080;28;20049;-76
2022/03/22 04:26:46;;;;;;;29.10;10.90;;;;;;;20.71;12.25;100215.38;5076204;28;20503;-76
2022/03/22 04:34:45;;;;;;;22.05;8.85;;;;;;;21.18;11.93;100218.16;5076281;28;20059;-76
2022/03/22 04:37:13;;;;;;;24.52;9.98;;;;;;;21.12;12.11;100230.81;5082825;28;20040;-76
2022/03/22 04:39:44;;;;;;;23.52;9.25;;;;;;;21.09;12.09;100223.97;5081355;28;20036;-76
2022/03/22 04:42:14;;;;;;;22.02;8.93;;;;;;;20.96;12.30;100230.75;5078619;28;20482;-75
2022/03/22 04:44:40;;;;;;;21.60;7.82;;;;;;;20.15;12.79;100230.56;5068698;28;20032;-75
2022/03/22 04:47:07;;;;;;;18.58;8.30;;;;;;;20.02;13.02;100230.59;5078412;28;20279;-76
2022/03/22 04:49:33;;;;;;;17.67;7.70;;;;;;;20.35;12.80;100229.56;5084690;28;20036;-75
2022/03/22 04:57:29;;;;;;;21.50;7.43;;;;;;;21.66;11.96;100230.84;5086499;28;20169;-75
2022/03/22 04:59:56;;;;;;;22.35;8.77;;;;;;;21.21;12.22;100232.19;5078072;28;20034;-75
2022/03/22 05:02:23;;;;;;;15.95;7.13;;;;;;;21.05;12.29;100237.00;5081630;28;20032;-76
2022/03/22 05:04:49;;;;;;;23.15;8.43;;;;;;;20.79;12.61;100233.13;5087874;28;20069;-76
2022/03/22 05:07:15;;;;;;;20.08;7.97;;;;;;;20.70;12.80;100230.50;5080648;28;20405;-76
2022/03/22 05:09:41;;;;;;;18.00;7.05;;;;;;;21.03;12.44;100230.13;5085281;28;20366;-76
2022/03/22 05:12:13;;;;;;;18.45;7.85;;;;;;;21.25;12.25;100232.31;5090152;28;20063;-76
2022/03/22 05:14:40;;;;;;;17.67;6.75;;;;;;;20.99;12.60;100232.03;5083213;28;20038;-76
2022/03/22 05:17:06;;;;;;;15.05;7.05;;;;;;;21.02;12.62;100222.94;5076242;28;20057;-75
2022/03/22 05:19:33;;;;;;;19.25;8.27;;;;;;;21.05;12.54;100225.84;5077465;28;20037;-75
2022/03/22 05:21:59;;;;;;;19.85;8.60;;;;;;;20.95;12.73;100231.94;5080758;28;20028;-75
2022/03/22 05:24:25;;;;;;;17.25;8.18;;;;;;;20.75;12.86;100232.22;5085644;28;20161;-75
2022/03/22 05:26:51;;;;;;;15.27;6.97;;;;;;;20.80;12.96;100229.97;5065974;28;20043;-75
2022/03/22 05:29:17;;;;;;;17.75;7.55;;;;;;;21.27;12.88;100230.78;5082402;28;20114;-75
2022/03/22 05:31:45;;;;;;;19.83;8.70;;;;;;;21.46;12.54;100226.41;5082493;28;20040;-76
2022/03/22 05:34:11;;;;;;;18.90;8.07;;;;;;;21.56;12.51;100223.03;5081269;28;20024;-75
2022/03/22 05:36:38;;;;;;;15.77;7.32;;;;;;;21.84;12.45;100218.09;5080999;28;20872;-75
2022/03/22 05:39:04;;;;;;;19.35;7.00;;;;;;;22.25;12.12;100219.31;5087869;28;20043;-76
2022/03/22 05:41:30;;;;;;;13.57;6.47;;;;;;;23.11;11.36;100221.28;5084556;28;20386;-76
2022/03/22 05:43:56;;;;;;;14.55;6.57;;;;;;;23.61;11.28;100222.06;5087090;28;20580;-76
2022/03/22 05:46:23;;;;;;;17.10;8.32;;;;;;;23.71;12.02;100227.03;5080037;28;20031;-76
2022/03/22 05:48:49;;;;;;;15.95;7.57;;;;;;;23.72;11.97;100225.81;5080093;28;20033;-76
2022/03/22 05:51:18;;;;;;;23.80;9.88;;;;;;;23.62;12.22;100232.13;5077637;28;20107;-76
2022/03/22 05:53:45;;;;;;;20.60;9.18;;;;;;;23.56;12.57;100231.63;5080542;28;20181;-76
2022/03/22 05:56:12;;;;;;;21.45;9.80;;;;;;;23.27;12.82;100229.53;5065828;28;20462;-76
2022/03/22 05:58:39;;;;;;;22.52;10.60;;;;;;;23.34;13.34;100235.25;5083103;28;20117;-76
2022/03/22 06:01:06;;;;;;;22.40;10.68;;;;;;;23.12;13.50;100241.72;5076556;28;20032;-76
2022/03/22 06:03:33;;;;;;;25.40;12.02;;;;;;;22.82;13.60;100235.22;5083077;28;20016;-76
2022/03/22 06:06:00;;;;;;;18.92;9.40;;;;;;;22.87;13.01;100237.69;5080410;28;20032;-76
2022/03/22 06:08:27;;;;;;;21.05;8.68;;;;;;;22.81;12.87;100245.59;5083766;28;20037;-76
2022/03/22 06:10:53;;;;;;;16.48;8.70;;;;;;;22.57;13.72;100243.13;5081763;28;20044;-76
2022/03/22 06:13:19;;;;;;;18.73;8.40;;;;;;;22.67;13.46;100242.53;5084239;28;20040;-76
2022/03/22 06:15:45;;;;;;;23.58;9.82;;;;;;;22.48;12.87;100243.38;5083889;28;20485;-76
2022/03/22 06:18:11;;;;;;;26.73;9.63;;;;;;;22.90;12.86;100251.75;5081053;28;20041;-76
2022/03/22 06:20:41;;;;;;;20.65;9.20;;;;;;;22.93;13.01;100245.41;5080666;28;20031;-76
2022/03/22 06:23:10;;;;;;;20.13;8.38;;;;;;;22.65;12.88;100256.13;5084362;28;20043;-77
2022/03/22 06:25:36;;;;;;;19.80;9.63;;;;;;;22.75;13.47;100255.50;5082257;28;20028;-77
2022/03/22 06:28:04;;;;;;;18.08;7.07;;;;;;;23.18;12.47;100252.22;5069985;28;20405;-77
2022/03/22 06:30:30;;;;;;;16.83;8.43;;;;;;;24.04;12.13;100253.09;5079801;28;20060;-77
2022/03/22 06:32:59;;;;;;;18.48;8.63;;;;;;;23.75;12.37;100256.75;5080216;28;20557;-77
2022/03/22 06:35:28;;;;;;;19.17;9.77;;;;;;;22.88;12.82;100256.94;5071765;28;20039;-77
2022/03/22 06:37:54;;;;;;;20.35;9.85;;;;;;;23.33;12.69;100256.91;5080221;28;20033;-77
2022/03/22 06:40:23;;;;;;;13.70;7.95;;;;;;;23.73;12.44;100249.88;5078522;28;20028;-77
2022/03/22 06:42:50;;;;;;;14.65;7.50;;;;;;;23.85;12.23;100256.06;5080105;28;20482;-77
2022/03/22 06:45:16;;;;;;;13.38;7.13;;;;;;;23.86;12.20;100252.06;5067740;28;20385;-77
2022/03/22 06:47:43;;;;;;;12.35;6.05;;;;;;;23.98;11.86;100251.03;5088091;28;20041;-77
2022/03/22 06:50:12;;;;;;;14.43;7.15;;;;;;;24.09;12.20;100259.59;5084819;28;20053;-77
2022/03/22 06:52:39;;;;;;;21.23;9.13;;;;;;;23.60;12.07;100249.28;5085027;28;20081;-77
2022/03/22 06:55:07;;;;;;;14.45;7.22;;;;;;;24.20;11.88;100255.72;5087599;28;20103;-77
2022/03/22 06:57:33;;;;;;;15.88;8.43;;;;;;;23.81;11.92;100249.59;5080784;28;20024;-77
2022/03/22 07:00:00;;;;;;;21.08;8.05;;;;;;;24.04;12.08;100255.09;5065691;28;20032;-77
2022/03/22 07:02:27;;;;;;;19.83;8.90;;;;;;;24.24;11.60;100255.78;5077762;28;20066;-77
2022/03/22 07:04:53;;;;;;;14.10;6.85;;;;;;;24.37;11.92;100254.31;5086019;28;20402;-77
2022/03/22 07:07:20;;;;;;;19.35;8.45;;;;;;;24.19;11.71;100261.75;5081941;28;20029;-77
2022/03/22 07:09:46;;;;;;;14.75;6.53;;;;;;;24.64;11.80;100261.47;5076533;28;20033;-77
2022/03/22 07:12:15;;;;;;;15.20;6.47;;;;;;;25.37;11.20;100264.13;5078958;28;20085;-77
2022/03/22 07:14:42;;;;;;;19.50;9.00;;;;;;;24.42;11.53;100260.41;5080285;28;20115;-77
2022/03/22 07:17:09;;;;;;;22.27;9.93;;;;;;;22.77;12.64;100267.13;5082184;28;20069;-77
2022/03/22 07:19:36;;;;;;;21.63;9.55;;;;;;;22.83;13.30;100264.81;5083390;28;20074;-77
2022/03/22 07:22:03;;;;;;;13.88;6.70;;;;;;;24.58;12.13;100260.19;5083851;28;20439;-77
2022/03/22 07:24:29;;;;;;;14.60;7.47;;;;;;;24.78;11.51;100261.63;5081811;28;20028;-77
2022/03/22 07:26:55;;;;;;;11.32;5.97;;;;;;;25.16;11.64;100261.16;5081038;28;20071;-77
2022/03/22 07:29:22;;;;;;;17.70;8.50;;;;;;;24.70;11.92;100268.34;5080737;28;20151;-77
2022/03/22 07:31:48;;;;;;;9.98;6.00;;;;;;;25.46;11.36;100277.09;5078057;28;20044;-78
2022/03/22 07:34:16;;;;;;;13.93;6.95;;;;;;;25.95;10.60;100266.94;5081873;28;20091;-77
2022/03/22 07:36:44;;;;;;;14.93;7.88;;;;;;;25.92;10.38;100267.75;5080541;28;20127;-78
2022/03/22 07:39:11;;;;;;;13.55;7.43;;;;;;;25.77;10.66;100271.69;5079391;28;20040;-77
2022/03/22 07:41:38;;;;;;;14.95;6.97;;;;;;;23.85;12.00;100272.88;5083329;28;20043;-78
2022/03/22 07:44:05;;;;;;;11.27;5.60;;;;;;;25.33;11.26;100276.56;5083761;28;20534;-78
2022/03/22 07:46:36;;;;;;;11.93;6.20;;;;;;;26.55;10.56;100263.59;5080069;28;20401;-78
2022/03/22 07:52:57;;;;;;;8.90;5.63;;;;;;;27.40;9.57;100259.69;5085393;28;20161;-78
2022/03/22 07:54:33;;;;;;;9.20;5.72;;;;;;;27.92;9.42;100265.63;5084230;28;20079;-78
2022/03/22 07:56:59;;;;;;;8.82;5.18;;;;;;;28.20;9.12;100254.25;5080778;28;20070;-77
2022/03/22 07:59:27;;;;;;;11.90;6.22;;;;;;;28.28;9.08;100260.69;5063354;28;20039;-77
2022/03/22 08:01:53;;;;;;;9.57;4.57;;;;;;;28.44;8.92;100256.16;5080739;28;20409;-78
2022/03/22 08:04:20;;;;;;;8.43;5.55;;;;;;;28.40;8.82;100248.94;5083051;28;20032;-79
2022/03/22 08:06:46;;;;;;;8.35;4.50;;;;;;;28.55;8.60;100254.06;5060456;28;20186;-78
2022/03/22 08:09:12;;;;;;;11.68;6.05;;;;;;;28.63;8.85;100250.03;5083360;28;20039;-78
2022/03/22 08:11:42;;;;;;;11.20;4.88;;;;;;;28.50;8.71;100253.69;5066798;28;20552;-78
2022/03/22 08:14:08;;;;;;;10.02;5.90;;;;;;;27.70;9.31;100256.41;5087476;28;20032;-78
2022/03/22 08:16:37;;;;;;;8.65;5.43;;;;;;;27.88;9.40;100254.34;5082253;28;20784;-78
2022/03/22 08:19:06;;;;;;;11.57;5.97;;;;;;;28.04;9.22;100256.75;5087241;28;20035;-78
2022/03/22 08:21:34;;;;;;;11.23;5.22;;;;;;;28.10;9.33;100254.31;5087640;28;20035;-78
2022/03/22 08:24:01;;;;;;;11.32;5.47;;;;;;;28.41;9.36;100253.34;5083134;28;20060;-78
2022/03/22 08:26:30;;;;;;;11.50;5.63;;;;;;;28.52;9.20;100248.47;5084068;28;20028;-78
2022/03/22 08:28:56;;;;;;;12.20;5.32;;;;;;;28.85;9.03;100247.84;5080750;28;20033;-78
2022/03/22 08:31:22;;;;;;;9.35;5.78;;;;;;;29.05;8.96;100246.09;5083422;28;20043;-78
2022/03/22 08:33:49;;;;;;;9.02;5.57;;;;;;;28.33;9.36;100244.13;5086750;28;20084;-78
2022/03/22 08:36:15;;;;;;;9.32;5.30;;;;;;;28.82;9.14;100245.88;5086642;28;20036;-78
2022/03/22 08:38:41;;;;;;;10.50;5.13;;;;;;;28.93;8.59;100251.44;5085960;28;20039;-78
2022/03/22 08:41:08;;;;;;;9.10;6.15;;;;;;;28.34;9.03;100242.06;5080137;28;20112;-78
2022/03/22 08:43:34;;;;;;;11.82;6.60;;;;;;;28.30;9.04;100247.75;5085848;28;20028;-78
2022/03/22 08:46:00;;;;;;;21.17;11.02;;;;;;;26.52;10.89;100250.28;5088413;28;20024;-77
2022/03/22 08:48:27;;;;;;;16.90;10.15;;;;;;;25.97;10.71;100247.69;5089427;28;20032;-78
2022/03/22 08:50:53;;;;;;;26.52;13.77;;;;;;;24.92;11.71;100246.91;5080122;28;20175;-78
2022/03/22 08:53:20;;;;;;;24.90;12.70;;;;;;;24.59;12.33;100248.56;5087235;28;20041;-78
2022/03/22 08:55:48;;;;;;;17.35;9.05;;;;;;;27.15;10.47;100239.13;5081358;28;21028;-78
2022/03/22 08:58:16;;;;;;;18.67;10.77;;;;;;;26.60;10.76;100244.28;5083228;28;20044;-78
2022/03/22 09:00:43;;;;;;;13.57;8.68;;;;;;;27.88;10.11;100236.59;5065236;28;20030;-78
2022/03/22 09:03:10;;;;;;;11.93;6.72;;;;;;;29.05;8.62;100229.13;5082084;28;20040;-78
2022/03/22 09:08:22;;;;;;;10.75;5.35;;;;;;;28.04;9.22;100228.50;5082909;28;20050;-78
2022/03/22 09:10:50;;;;;;;9.13;5.20;;;;;;;28.37;8.95;100225.13;5088749;28;20054;-78
2022/03/22 09:13:18;;;;;;;21.40;11.10;;;;;;;26.87;10.51;100227.03;5078454;28;20024;-76
2022/03/22 09:15:46;;;;;;;22.40;12.40;;;;;;;25.26;11.46;100223.91;5085363;28;20039;-79
2022/03/22 09:18:18;;;;;;;22.98;11.23;;;;;;;25.85;11.38;100224.69;5087741;28;20107;-77
2022/03/22 09:20:45;;;;;;;21.48;11.77;;;;;;;25.98;11.13;100220.31;5083640;28;20044;-77
2022/03/22 09:23:12;;;;;;;17.80;10.65;;;;;;;27.12;10.33;100216.56;5083069;28;20055;-77
2022/03/22 09:25:40;;;;;;;18.20;10.07;;;;;;;27.11;10.54;100217.78;5079658;28;20028;-77
2022/03/22 09:28:07;;;;;;;22.88;13.60;;;;;;;24.05;12.26;100214.63;5079910;28;20044;-77
2022/03/22 09:30:35;;;;;;;22.58;10.88;;;;;;;25.12;11.87;100223.78;5084871;28;20047;-77
2022/03/22 09:33:03;;;;;;;22.95;11.98;;;;;;;26.74;11.06;100220.97;5086972;28;20131;-77
2022/03/22 09:35:30;;;;;;;20.77;11.95;;;;;;;25.44;11.69;100224.03;5079881;28;20368;-77
2022/03/22 09:37:57;;;;;;;32.08;13.13;;;;;;;25.34;11.47;100217.09;5082447;28;20517;-77
2022/03/22 09:40:25;;;;;;;22.02;12.30;;;;;;;25.51;12.16;100209.22;5087691;28;20055;-77
2022/03/22 09:42:51;;;;;;;18.63;10.93;;;;;;;25.10;11.77;100211.31;5081310;28;20028;-77
2022/03/22 09:45:24;;;;;;;18.50;10.77;;;;;;;25.26;11.41;100204.22;5088054;28;20500;-77
2022/03/22 09:47:50;;;;;;;16.75;9.80;;;;;;;27.02;9.97;100197.63;5083385;28;20032;-77
2022/03/22 09:50:18;;;;;;;25.25;12.95;;;;;;;24.81;11.98;100206.69;5088798;28;20398;-77
2022/03/22 09:52:44;;;;;;;21.83;11.63;;;;;;;24.41;12.47;100199.81;5085963;28;20051;-77
2022/03/22 09:55:13;;;;;;;28.48;15.25;;;;;;;24.52;12.19;100195.13;5085165;28;20066;-77
2022/03/22 09:57:39;;;;;;;26.85;14.77;;;;;;;23.90;12.65;100196.00;5082243;28;20081;-78
2022/03/22 10:00:07;;;;;;;27.70;16.15;;;;;;;22.71;13.49;100193.00;5071993;28;20048;-77
2022/03/22 10:02:35;;;;;;;27.50;16.38;;;;;;;22.52;13.90;100193.06;5077626;28;20089;-77
2022/03/22 10:05:03;;;;;;;27.45;16.13;;;;;;;23.45;13.46;100190.59;5083078;28;20462;-78
2022/03/22 10:07:29;;;;;;;32.28;16.55;;;;;;;23.54;13.19;100183.53;5077510;28;20074;-78
2022/03/22 10:09:56;;;;;;;28.98;16.40;;;;;;;23.73;12.86;100180.59;5080011;28;20112;-78
2022/03/22 10:12:27;;;;;;;32.83;17.55;;;;;;;23.56;13.10;100183.94;5083738;28;20115;-78
2022/03/22 10:14:53;;;;;;;;;;;;;;;23.58;12.99;100181.56;5091312;28;20055;-78
2022/03/22 10:17:19;;;;;;;28.63;15.68;;;;;;;23.04;13.49;100183.94;5082138;28;19962;-78
2022/03/22 10:19:48;;;;;;;27.08;15.93;;;;;;;22.98;13.50;100185.44;5079543;28;20104;-78
2022/03/22 10:22:16;;;;;;;26.42;14.27;;;;;;;24.23;12.75;100172.75;5085847;28;20070;-78
2022/03/22 10:24:52;;;;;;;42.75;20.77;;;;;;;23.02;13.61;100175.91;5071614;28;20123;-78
2022/03/22 10:27:20;;;;;;;34.42;19.17;;;;;;;23.39;13.85;100178.91;5106121;28;20088;-78
2022/03/22 10:29:46;;;;;;;30.30;18.27;;;;;;;23.60;13.89;100173.59;5102597;28;20031;-78
2022/03/22 10:32:13;;;;;;;32.85;17.02;;;;;;;25.77;11.93;100163.94;5103664;28;20060;-78
2022/03/22 10:34:39;;;;;;;34.08;18.00;;;;;;;24.51;12.75;100173.03;5107976;28;20028;-78
2022/03/22 10:37:05;;;;;;;32.63;18.48;;;;;;;22.82;13.95;100173.59;5094125;28;20026;-78
2022/03/22 10:39:39;;;;;;;37.80;20.70;;;;;;;22.62;14.13;100173.66;5090780;28;20517;-78
2022/03/22 10:42:08;;;;;;;35.78;19.80;;;;;;;22.89;14.58;100177.31;5092760;28;20028;-78
2022/03/22 10:44:39;;;;;;;30.50;18.75;;;;;;;23.38;13.97;100163.28;5091611;28;20390;-78
2022/03/22 10:47:07;;;;;;;30.67;17.92;;;;;;;23.39;13.78;100162.06;5106294;28;20024;-78
2022/03/22 10:49:34;;;;;;;30.50;18.15;;;;;;;22.61;14.18;100168.44;5114297;28;20122;-78
2022/03/22 10:52:00;;;;;;;29.55;16.95;;;;;;;23.93;13.76;100164.38;5102401;28;20042;-78
2022/03/22 10:54:26;;;;;;;27.25;15.85;;;;;;;24.34;12.95;100168.06;5109153;28;20037;-78
2022/03/22 10:56:55;;;;;;;26.88;16.58;;;;;;;24.73;12.67;100158.00;5082081;28;20047;-78
2022/03/22 10:59:27;;;;;;;35.42;18.95;;;;;;;24.25;12.79;100156.34;5055780;28;20033;-78
2022/03/22 11:01:55;;;;;;;29.27;16.27;;;;;;;24.18;12.73;100153.47;5095908;28;20489;-78
2022/03/22 11:04:22;;;;;;;25.17;14.88;;;;;;;24.27;13.03;100149.13;5093575;28;20028;-78
2022/03/22 11:06:49;;;;;;;22.70;12.80;;;;;;;24.94;12.27;100151.78;5092521;28;20043;-78
2022/03/22 11:09:16;;;;;;;18.95;11.80;;;;;;;26.86;11.37;100146.50;5113979;28;20492;-78
2022/03/22 11:11:43;;;;;;;19.45;11.27;;;;;;;29.08;9.74;100136.97;5092945;28;20051;-78
2022/03/22 11:14:13;;;;;;;22.15;14.07;;;;;;;27.82;10.38;100136.63;5092221;28;20050;-78
2022/03/22 11:16:41;;;;;;;19.92;10.18;;;;;;;28.98;10.04;100132.19;5104461;28;20035;-78
2022/03/22 11:19:10;;;;;;;21.38;12.23;;;;;;;26.74;10.85;100134.41;5107073;28;20032;-78
2022/03/22 11:21:37;;;;;;;17.55;11.23;;;;;;;27.48;10.91;100124.22;5093808;28;20023;-78
2022/03/22 11:24:12;;;;;;;19.95;12.38;;;;;;;25.57;11.80;100117.63;5110868;28;20543;-78
2022/03/22 11:26:39;;;;;;;22.77;12.23;;;;;;;25.56;12.51;100125.25;5108067;28;20043;-78
2022/03/22 11:29:06;;;;;;;19.70;11.43;;;;;;;26.84;11.68;100115.09;5104297;28;20047;-78
2022/03/22 11:31:33;;;;;;;24.33;12.55;;;;;;;26.34;11.43;100120.69;5092900;28;20067;-78
2022/03/22 11:34:09;;;;;;;18.45;10.82;;;;;;;27.13;11.21;100111.81;5100613;28;20102;-78
2022/03/22 11:36:48;;;;;;;18.63;11.38;;;;;;;25.87;11.76;100113.31;5095943;28;20068;-78
2022/03/22 11:39:19;;;;;;;19.83;12.32;;;;;;;25.33;12.00;100105.03;5080881;28;20119;-78
2022/03/22 11:44:36;;;;;;;18.63;11.82;;;;;;;25.99;11.57;100103.69;5084849;28;20051;-78